Terminal Aerodrome Forecast
Issued by NWS Wichita, KS

Home | Current Version | Previous Version | Graphics & Text | Print | Product List | Glossary On
Versions: 1 2 3 4 5 6 7 8 9 10 11 12 13
976
FTUS43 KICT 111124
TAFICT
TAF
KICT 111124Z 1112/1212 29010KT P6SM SKC
     FM111700 33020G29KT P6SM BKN250
     FM120000 34015G22KT P6SM SCT200
     FM121000 32010KT P6SM SKC=

USA.gov is the U.S. government's official web portal to all federal, state and local government web resources and services.